Time;durP1;ratioP1;P1;durP2;ratioP2;P2;SDS_P1;SDS_P2;PMS_P1;PMS_P2;Temp;Humidity;BMP_temperature;BMP_pressure;BME280_temperature;BME280_humidity;BME280_pressure;Samples;Min_cycle;Max_cycle;Signal;HPM_P1;HPM_P2
2023/07/09 00:01:18;;;;;;;4.80;3.40;;;;;;;16.53;75.15;99647.29;108383;1257;59545;-78
2023/07/09 00:03:48;;;;;;;6.10;3.30;;;;;;;16.50;75.19;99647.87;105640;1263;59760;-76
2023/07/09 00:06:15;;;;;;;4.60;3.40;;;;;;;16.46;75.11;99644.08;105770;1261;72140;-78
2023/07/09 00:08:49;;;;;;;6.30;3.90;;;;;;;16.43;75.44;99644.48;105896;1262;69191;-78
2023/07/09 00:11:16;;;;;;;4.40;3.20;;;;;;;16.42;75.33;99641.70;105586;1257;72717;-78
2023/07/09 00:13:44;;;;;;;4.40;3.40;;;;;;;16.47;75.19;99641.29;105537;1258;62369;-76
2023/07/09 00:16:14;;;;;;;4.20;3.60;;;;;;;16.51;75.06;99642.70;105705;1257;59594;-75
2023/07/09 00:18:41;;;;;;;5.50;3.50;;;;;;;16.48;75.15;99639.25;105686;1263;71760;-78
2023/07/09 00:21:09;;;;;;;6.50;3.50;;;;;;;16.44;75.07;99638.81;106554;1257;68363;-77
2023/07/09 00:23:38;;;;;;;4.10;3.30;;;;;;;16.42;74.82;99637.65;107195;1261;73826;-79
2023/07/09 00:26:16;;;;;;;5.30;3.50;;;;;;;16.40;75.00;99632.88;106442;1263;59725;-79
2023/07/09 00:28:43;;;;;;;4.30;3.50;;;;;;;16.39;74.82;99632.62;108332;1256;59189;-79
2023/07/09 00:31:13;;;;;;;5.70;3.50;;;;;;;16.47;74.50;99629.73;108947;1257;71660;-79
2023/07/09 00:33:41;;;;;;;4.20;3.20;;;;;;;16.53;74.28;99627.33;107823;1260;68914;-78
2023/07/09 00:36:27;;;;;;;5.40;3.70;;;;;;;16.51;74.21;99628.64;105477;1267;71825;-78
2023/07/09 00:38:59;;;;;;;4.30;3.70;;;;;;;16.48;74.19;99625.55;105537;1261;59737;-80
2023/07/09 00:41:28;;;;;;;5.10;4.00;;;;;;;16.45;74.15;99621.20;105751;1257;60057;-77
2023/07/09 00:43:57;;;;;;;6.10;3.30;;;;;;;16.42;74.04;99625.08;105531;1264;73121;-81
2023/07/09 00:46:26;;;;;;;4.60;3.60;;;;;;;16.39;73.76;99624.87;105606;1257;70227;-79
2023/07/09 00:49:05;;;;;;;4.00;3.20;;;;;;;16.45;73.64;99626.76;105605;1262;71416;-78
2023/07/09 00:51:33;;;;;;;9.50;3.70;;;;;;;16.49;73.54;99623.27;105621;1258;60313;-78
2023/07/09 00:54:09;;;;;;;3.60;3.10;;;;;;;16.46;73.49;99624.12;105560;1256;60019;-80
2023/07/09 00:56:40;;;;;;;5.20;4.10;;;;;;;16.43;73.35;99627.96;106135;1263;73187;-77
2023/07/09 00:59:10;;;;;;;8.50;4.10;;;;;;;16.40;73.08;99627.30;106630;1263;67937;-79
2023/07/09 01:01:40;;;;;;;4.20;3.80;;;;;;;16.37;73.21;99626.80;108475;1257;70097;-79
2023/07/09 01:04:09;;;;;;;9.50;4.30;;;;;;;16.34;73.25;99623.40;106465;1263;59713;-79
2023/07/09 01:06:44;;;;;;;4.60;3.80;;;;;;;16.34;73.19;99620.96;105509;1266;59641;-81
2023/07/09 01:09:11;;;;;;;8.50;4.20;;;;;;;16.40;72.92;99623.76;105638;1258;73007;-80
2023/07/09 01:11:39;;;;;;;5.10;3.70;;;;;;;16.40;72.96;99623.71;106214;1257;70228;-80
2023/07/09 01:14:08;;;;;;;5.00;3.70;;;;;;;16.36;73.13;99625.30;106476;1258;71493;-79
2023/07/09 01:16:37;;;;;;;8.00;4.00;;;;;;;16.33;73.20;99624.26;106667;1259;59616;-80
2023/07/09 01:19:05;;;;;;;6.40;3.80;;;;;;;16.30;73.11;99623.03;105619;1257;60543;-82
2023/07/09 01:21:33;;;;;;;4.90;3.50;;;;;;;16.26;73.04;99623.41;105793;1257;71929;-82
2023/07/09 01:24:15;;;;;;;6.00;3.60;;;;;;;16.29;73.06;99624.55;105727;1262;69692;-81
2023/07/09 01:26:43;;;;;;;5.60;3.70;;;;;;;16.34;73.03;99626.86;105613;1257;72686;-81
2023/07/09 01:29:12;;;;;;;5.40;3.60;;;;;;;16.29;73.14;99628.51;106098;1263;59542;-79
2023/07/09 01:31:39;;;;;;;5.10;3.50;;;;;;;16.25;73.33;99628.36;108132;1257;59560;-79
2023/07/09 01:34:07;;;;;;;5.10;3.80;;;;;;;16.23;73.48;99626.06;107570;1257;71493;-77
2023/07/09 01:36:39;;;;;;;6.30;3.90;;;;;;;16.19;73.83;99630.98;105653;1263;69564;-75
2023/07/09 01:39:07;;;;;;;8.50;3.60;;;;;;;16.16;73.72;99631.98;105603;1264;72475;-75
2023/07/09 01:41:34;;;;;;;7.80;3.20;;;;;;;16.20;73.47;99631.98;105610;1258;61644;-75
2023/07/09 01:44:02;;;;;;;6.90;3.10;;;;;;;16.22;73.47;99633.05;105525;1257;59957;-77
2023/07/09 01:46:30;;;;;;;5.30;3.70;;;;;;;16.18;73.54;99633.59;105578;1257;71810;-79
2023/07/09 01:48:57;;;;;;;5.00;3.30;;;;;;;16.14;73.59;99637.07;105794;1261;68694;-80
2023/07/09 01:51:28;;;;;;;4.50;3.50;;;;;;;16.10;73.71;99641.10;105690;1261;70393;-80
2023/07/09 01:53:55;;;;;;;4.90;3.70;;;;;;;16.06;73.65;99641.52;105671;1263;59598;-79
2023/07/09 01:56:24;;;;;;;7.30;4.00;;;;;;;16.02;73.69;99643.70;105519;1262;59843;-78
2023/07/09 01:58:51;;;;;;;4.00;3.40;;;;;;;15.98;73.59;99647.58;105890;1257;71915;-82
2023/07/09 02:01:19;;;;;;;6.20;3.10;;;;;;;16.03;73.80;99646.70;107688;1257;68303;-78
2023/07/09 02:03:47;;;;;;;5.90;3.40;;;;;;;16.06;73.82;99646.09;108606;1260;70436;-80
2023/07/09 02:06:14;;;;;;;5.60;3.60;;;;;;;16.04;74.01;99649.55;105760;1256;60204;-80
2023/07/09 02:08:43;;;;;;;4.20;3.80;;;;;;;16.01;73.75;99652.65;105744;1260;59602;-81
2023/07/09 02:11:10;;;;;;;4.70;3.60;;;;;;;15.97;73.95;99652.64;105712;1256;71836;-82
2023/07/09 02:13:37;;;;;;;7.00;3.80;;;;;;;15.92;74.01;99651.16;105635;1258;70176;-77
2023/07/09 02:16:05;;;;;;;6.50;3.60;;;;;;;15.89;73.91;99658.73;105723;1257;73023;-80
2023/07/09 02:18:34;;;;;;;6.10;3.40;;;;;;;15.94;73.84;99661.02;105752;1257;61729;-79
2023/07/09 02:21:01;;;;;;;4.90;3.70;;;;;;;15.97;73.88;99662.69;106118;1256;59808;-80
2023/07/09 02:23:29;;;;;;;3.90;3.50;;;;;;;15.94;73.87;99663.28;106450;1262;73070;-76
2023/07/09 02:25:58;;;;;;;6.50;3.70;;;;;;;15.90;74.01;99665.87;105901;1262;68401;-78
2023/07/09 02:28:25;;;;;;;4.90;3.60;;;;;;;15.87;74.00;99665.48;106132;1257;72747;-79
2023/07/09 02:30:53;;;;;;;5.20;4.10;;;;;;;15.83;74.22;99671.17;106720;1256;59620;-78
2023/07/09 02:33:20;;;;;;;5.00;3.40;;;;;;;15.79;74.35;99670.02;108805;1256;58780;-77
2023/07/09 02:35:48;;;;;;;3.70;3.10;;;;;;;15.85;74.15;99668.88;105944;1256;72303;-80
2023/07/09 02:38:15;;;;;;;5.30;3.50;;;;;;;15.91;74.05;99669.20;105603;1261;69138;-79
2023/07/09 02:40:42;;;;;;;5.00;3.70;;;;;;;15.88;74.17;99670.98;105618;1261;72653;-76
2023/07/09 02:43:10;;;;;;;4.00;3.00;;;;;;;15.86;74.26;99674.33;105586;1262;60384;-76
2023/07/09 02:45:38;;;;;;;4.60;4.20;;;;;;;15.83;74.37;99680.23;105671;1256;59659;-74
2023/07/09 02:48:05;;;;;;;6.30;3.80;;;;;;;15.80;74.35;99680.52;105552;1259;73431;-75
2023/07/09 02:50:37;;;;;;;5.90;3.70;;;;;;;15.77;74.33;99683.02;105755;1270;71103;-75
2023/07/09 02:53:04;;;;;;;4.90;3.40;;;;;;;15.81;74.52;99680.91;105681;1256;72710;-76
2023/07/09 02:55:34;;;;;;;6.20;3.60;;;;;;;15.85;74.14;99682.98;105669;1256;60623;-75
2023/07/09 02:58:01;;;;;;;6.40;3.50;;;;;;;15.83;74.32;99675.42;106331;1256;60044;-77
2023/07/09 03:00:29;;;;;;;6.00;3.90;;;;;;;15.81;74.46;99674.10;108151;1253;72192;-79
2023/07/09 03:02:56;;;;;;;5.20;3.70;;;;;;;15.80;74.60;99675.27;109205;1253;68788;-79
2023/07/09 03:05:24;;;;;;;3.70;3.30;;;;;;;15.81;74.49;99677.36;107135;1254;71497;-79
2023/07/09 03:07:51;;;;;;;6.80;3.10;;;;;;;15.81;74.41;99674.51;105975;1259;60472;-77
2023/07/09 03:10:19;;;;;;;4.70;3.30;;;;;;;15.89;74.27;99670.23;107353;1253;60069;-77
2023/07/09 03:12:49;;;;;;;8.90;3.90;;;;;;;15.94;74.62;99669.96;107479;1254;75287;-79
2023/07/09 03:15:16;;;;;;;11.60;4.10;;;;;;;15.93;74.58;99669.87;106081;1254;68963;-79
2023/07/09 03:17:45;;;;;;;8.90;5.10;;;;;;;15.92;74.60;99671.19;105953;1253;74788;-78
2023/07/09 03:20:13;;;;;;;4.40;3.60;;;;;;;15.93;74.61;99671.64;106033;1259;59669;-79
2023/07/09 03:22:41;;;;;;;7.00;3.80;;;;;;;15.92;74.50;99672.64;105929;1259;59623;-76
2023/07/09 03:25:08;;;;;;;6.70;3.40;;;;;;;15.92;74.47;99663.52;106161;1253;71813;-74
2023/07/09 03:27:36;;;;;;;7.10;3.90;;;;;;;15.99;74.36;99660.86;106964;1253;70822;-75
2023/07/09 03:30:03;;;;;;;6.60;3.30;;;;;;;16.05;74.27;99661.76;108093;1254;72503;-75
2023/07/09 03:32:31;;;;;;;4.50;3.30;;;;;;;16.06;74.36;99665.06;109023;1254;60709;-75
2023/07/09 03:34:58;;;;;;;4.70;3.50;;;;;;;16.06;74.49;99664.15;108780;1253;60454;-79
2023/07/09 03:37:26;;;;;;;4.70;3.20;;;;;;;16.07;74.35;99662.91;108525;1253;72679;-76
2023/07/09 03:39:53;;;;;;;5.40;3.70;;;;;;;16.09;74.30;99665.18;108367;1253;69634;-78
2023/07/09 03:42:20;;;;;;;3.80;3.40;;;;;;;16.11;74.05;99667.25;108818;1254;71355;-76
2023/07/09 03:44:48;;;;;;;5.70;3.90;;;;;;;16.12;74.24;99667.09;108206;1254;60386;-75
2023/07/09 03:47:16;;;;;;;3.80;3.20;;;;;;;16.23;74.14;99663.98;108471;1253;60432;-76
2023/07/09 03:49:43;;;;;;;6.00;3.60;;;;;;;16.33;73.95;99664.27;108749;1255;72581;-77
2023/07/09 03:52:11;;;;;;;4.40;3.60;;;;;;;16.36;73.81;99667.03;108198;1254;68781;-77
2023/07/09 03:54:38;;;;;;;5.60;3.40;;;;;;;16.37;73.63;99667.30;108256;1254;71051;-77
2023/07/09 03:57:07;;;;;;;6.80;3.60;;;;;;;16.40;73.43;99664.88;108834;1253;59005;-76
2023/07/09 03:59:35;;;;;;;5.60;3.80;;;;;;;16.41;73.39;99666.41;108712;1253;59076;-74
2023/07/09 04:02:03;;;;;;;4.30;3.50;;;;;;;16.43;73.27;99667.94;109402;1253;72257;-76
2023/07/09 04:04:30;;;;;;;7.30;4.10;;;;;;;16.46;73.00;99672.98;109288;1253;69327;-76
2023/07/09 04:06:57;;;;;;;7.60;3.30;;;;;;;16.59;72.74;99672.41;108013;1258;71416;-73
2023/07/09 04:09:25;;;;;;;6.10;3.50;;;;;;;16.69;72.38;99672.96;107794;1253;60453;-77
2023/07/09 04:11:52;;;;;;;8.60;4.10;;;;;;;16.74;72.20;99671.80;108848;1253;58818;-76
2023/07/09 04:14:19;;;;;;;6.70;3.60;;;;;;;16.78;72.00;99675.88;108986;1253;73953;-76
2023/07/09 04:16:47;;;;;;;4.60;3.50;;;;;;;16.82;71.75;99678.05;109079;1253;68768;-75
2023/07/09 04:19:14;;;;;;;6.50;3.80;;;;;;;16.84;71.19;99680.27;108137;1253;71948;-76
2023/07/09 04:21:42;;;;;;;5.00;3.30;;;;;;;16.84;71.17;99677.12;108072;1254;60488;-74
2023/07/09 04:24:09;;;;;;;7.60;3.20;;;;;;;16.85;71.08;99672.30;108328;1258;59148;-74
2023/07/09 04:26:38;;;;;;;5.20;4.00;;;;;;;16.87;70.95;99674.80;109261;1253;72634;-75
2023/07/09 04:29:06;;;;;;;5.10;3.70;;;;;;;16.92;70.91;99669.01;109429;1253;68794;-76
2023/07/09 04:31:33;;;;;;;7.40;3.60;;;;;;;16.97;70.77;99670.02;109013;1253;71458;-73
2023/07/09 04:34:01;;;;;;;6.40;3.70;;;;;;;17.14;70.59;99671.86;109404;1253;60510;-75
2023/07/09 04:36:28;;;;;;;5.20;3.70;;;;;;;17.29;70.46;99669.73;109127;1253;58733;-75
2023/07/09 04:38:55;;;;;;;4.70;3.90;;;;;;;17.43;70.39;99671.60;109174;1257;71594;-77
2023/07/09 04:41:23;;;;;;;4.00;3.30;;;;;;;17.58;69.77;99675.57;109391;1253;69273;-76
2023/07/09 04:43:51;;;;;;;4.70;3.70;;;;;;;17.73;69.61;99673.88;109339;1252;71667;-77
2023/07/09 04:46:18;;;;;;;7.20;4.10;;;;;;;17.87;69.29;99677.11;109387;1253;58861;-78
2023/07/09 04:48:45;;;;;;;6.60;3.80;;;;;;;18.01;69.09;99673.76;109392;1254;59230;-75
2023/07/09 04:51:13;;;;;;;5.10;4.00;;;;;;;18.16;68.78;99676.23;109215;1253;72573;-77
2023/07/09 04:53:42;;;;;;;4.50;3.40;;;;;;;18.28;68.41;99674.15;109101;1254;70319;-77
2023/07/09 04:56:09;;;;;;;3.90;3.50;;;;;;;18.38;68.19;99673.06;108673;1253;73079;-78
2023/07/09 04:58:37;;;;;;;7.60;3.30;;;;;;;18.47;68.01;99675.93;109308;1253;58735;-76
2023/07/09 05:01:04;;;;;;;4.80;3.70;;;;;;;18.51;67.01;99674.77;107837;1255;60506;-77
2023/07/09 05:03:31;;;;;;;4.50;3.90;;;;;;;18.52;66.82;99673.64;109306;1253;72589;-77
2023/07/09 05:05:59;;;;;;;7.00;3.60;;;;;;;18.55;66.70;99673.33;109417;1252;68960;-77
2023/07/09 05:08:27;;;;;;;5.70;4.10;;;;;;;18.62;66.70;99671.02;109069;1253;72629;-78
2023/07/09 05:10:56;;;;;;;6.20;3.90;;;;;;;18.69;66.84;99667.52;108986;1254;59006;-77
2023/07/09 05:13:24;;;;;;;4.50;3.40;;;;;;;18.74;66.74;99664.43;107741;1257;60728;-76
2023/07/09 05:15:52;;;;;;;5.40;4.00;;;;;;;18.79;66.65;99664.42;106083;1253;72692;-77
2023/07/09 05:18:19;;;;;;;5.60;4.00;;;;;;;18.84;66.30;99661.67;105940;1253;69164;-76
2023/07/09 05:20:47;;;;;;;7.80;3.80;;;;;;;18.87;66.33;99659.94;105783;1260;72948;-76
2023/07/09 05:23:14;;;;;;;8.80;3.70;;;;;;;18.91;66.11;99657.08;105866;1254;60518;-76
2023/07/09 05:25:42;;;;;;;4.30;3.30;;;;;;;18.95;65.75;99662.00;105835;1253;60570;-76
2023/07/09 05:28:09;;;;;;;4.90;2.90;;;;;;;18.98;65.38;99658.81;105851;1257;73913;-77
2023/07/09 05:30:36;;;;;;;3.90;3.40;;;;;;;19.02;65.16;99658.48;107914;1253;70222;-75
2023/07/09 05:33:04;;;;;;;4.00;3.00;;;;;;;19.04;64.81;99659.55;108096;1253;74046;-76
2023/07/09 05:35:31;;;;;;;5.20;3.30;;;;;;;19.07;64.70;99661.54;108233;1256;59657;-73
2023/07/09 05:37:59;;;;;;;5.60;3.40;;;;;;;19.11;64.74;99660.36;105859;1253;60533;-76
2023/07/09 05:40:27;;;;;;;5.50;2.70;;;;;;;19.16;64.52;99657.45;105988;1259;73823;-76
2023/07/09 05:42:54;;;;;;;5.00;3.10;;;;;;;19.21;64.42;99659.95;105830;1254;70286;-73
2023/07/09 05:45:22;;;;;;;4.00;3.40;;;;;;;19.28;64.34;99660.73;105941;1254;72458;-74
2023/07/09 05:47:49;;;;;;;6.90;3.30;;;;;;;19.35;64.16;99657.85;105798;1259;60427;-77
2023/07/09 05:50:18;;;;;;;5.00;3.20;;;;;;;19.44;64.03;99655.78;105938;1253;60475;-72
2023/07/09 05:52:45;;;;;;;5.20;2.60;;;;;;;19.54;63.85;99660.39;105982;1257;73887;-75
2023/07/09 05:55:13;;;;;;;3.90;2.50;;;;;;;19.61;63.27;99657.30;105976;1253;69986;-75
2023/07/09 05:57:40;;;;;;;5.70;3.20;;;;;;;19.71;63.22;99663.11;106067;1254;72752;-73
2023/07/09 06:00:08;;;;;;;4.40;3.20;;;;;;;19.80;63.43;99662.89;106623;1253;60395;-71
2023/07/09 06:02:40;;;;;;;5.40;3.20;;;;;;;19.92;62.58;99664.09;108430;1253;60469;-74
2023/07/09 06:05:11;;;;;;;3.60;2.60;;;;;;;20.01;62.38;99658.71;106391;1258;72927;-73
2023/07/09 06:07:39;;;;;;;2.90;2.40;;;;;;;20.10;61.62;99655.65;105543;1259;69363;-72
2023/07/09 06:10:07;;;;;;;4.20;2.90;;;;;;;20.20;61.01;99655.30;105395;1258;71468;-73
2023/07/09 06:12:35;;;;;;;3.50;2.80;;;;;;;20.28;60.69;99657.31;105557;1258;60603;-72
2023/07/09 06:15:05;;;;;;;3.40;2.90;;;;;;;20.36;60.55;99660.86;105863;1256;60504;-75
2023/07/09 06:17:32;;;;;;;4.40;2.90;;;;;;;20.46;60.30;99660.20;105757;1253;73309;-73
2023/07/09 06:20:00;;;;;;;3.90;2.80;;;;;;;20.52;60.00;99658.63;105745;1254;69697;-73
2023/07/09 06:22:27;;;;;;;3.70;3.30;;;;;;;20.60;59.68;99658.34;105838;1254;71411;-75
2023/07/09 06:24:55;;;;;;;4.30;2.60;;;;;;;20.66;59.44;99661.16;105666;1260;60473;-73
2023/07/09 06:27:22;;;;;;;3.10;2.30;;;;;;;20.70;59.07;99656.41;105552;1254;60435;-69
2023/07/09 06:29:49;;;;;;;4.10;2.90;;;;;;;20.76;59.06;99651.58;105444;1259;74250;-71
2023/07/09 06:32:17;;;;;;;4.20;2.50;;;;;;;20.82;58.55;99648.67;109108;1254;68741;-70
2023/07/09 06:34:45;;;;;;;3.00;2.80;;;;;;;20.86;58.29;99649.57;106961;1254;73165;-72
2023/07/09 06:37:12;;;;;;;4.40;2.40;;;;;;;20.89;57.95;99651.24;105856;1256;60550;-72
2023/07/09 06:39:40;;;;;;;3.20;2.80;;;;;;;20.89;57.76;99648.28;105829;1254;60626;-74
2023/07/09 06:42:07;;;;;;;4.30;2.60;;;;;;;20.90;58.23;99646.68;105834;1258;73198;-74
2023/07/09 06:44:56;;;;;;;3.20;2.60;;;;;;;20.93;57.95;99647.83;105819;1259;70284;-75
2023/07/09 06:47:23;;;;;;;2.80;2.60;;;;;;;20.93;57.70;99646.89;105932;1254;72973;-72
2023/07/09 06:49:50;;;;;;;5.30;2.90;;;;;;;20.93;57.65;99647.49;105564;1256;60518;-71
2023/07/09 06:52:18;;;;;;;4.40;2.50;;;;;;;20.94;57.98;99648.94;105983;1254;60534;-74
2023/07/09 06:54:45;;;;;;;4.00;2.90;;;;;;;20.96;58.20;99647.20;106027;1254;74034;-73
2023/07/09 06:57:12;;;;;;;3.70;2.50;;;;;;;21.01;58.17;99645.35;105899;1254;70226;-75
2023/07/09 06:59:40;;;;;;;4.30;2.80;;;;;;;21.08;58.45;99639.27;105867;1254;72623;-71
2023/07/09 07:02:08;;;;;;;4.00;2.60;;;;;;;21.18;58.61;99640.80;107376;1254;60509;-73
2023/07/09 07:04:35;;;;;;;3.10;2.30;;;;;;;21.26;57.72;99636.64;108614;1256;59240;-73
2023/07/09 07:07:03;;;;;;;2.80;2.60;;;;;;;21.32;56.74;99632.93;107085;1254;73075;-73
2023/07/09 07:09:30;;;;;;;3.60;2.40;;;;;;;21.37;56.40;99636.81;105749;1255;68791;-74
2023/07/09 07:11:57;;;;;;;3.90;2.60;;;;;;;21.43;56.47;99638.87;105777;1255;72425;-73
2023/07/09 07:14:25;;;;;;;2.90;2.30;;;;;;;21.49;56.65;99638.50;105623;1258;60927;-72
2023/07/09 07:16:52;;;;;;;3.70;2.20;;;;;;;21.55;56.78;99641.16;105633;1260;60422;-73
2023/07/09 07:19:20;;;;;;;3.60;2.40;;;;;;;21.63;56.95;99645.03;105728;1253;73886;-75
2023/07/09 07:21:47;;;;;;;4.50;2.20;;;;;;;21.71;56.32;99643.49;105704;1254;70254;-73
2023/07/09 07:24:14;;;;;;;3.80;2.40;;;;;;;21.78;55.83;99644.65;105782;1255;72703;-75
2023/07/09 07:26:42;;;;;;;3.20;2.50;;;;;;;21.84;55.75;99643.61;105798;1256;60407;-75
2023/07/09 07:29:09;;;;;;;3.00;2.20;;;;;;;21.89;56.03;99643.59;105816;1254;60586;-75
2023/07/09 07:31:36;;;;;;;3.20;2.60;;;;;;;21.96;55.71;99648.63;105828;1253;71660;-74
2023/07/09 07:34:04;;;;;;;2.50;2.20;;;;;;;22.03;55.31;99637.48;107034;1253;70716;-74
2023/07/09 07:36:31;;;;;;;2.70;2.10;;;;;;;22.08;54.61;99635.73;108027;1254;73634;-75
2023/07/09 07:39:05;;;;;;;3.20;2.20;;;;;;;22.14;54.35;99643.70;106878;1256;60626;-74
2023/07/09 07:41:32;;;;;;;2.70;2.50;;;;;;;22.17;54.47;99642.53;106023;1258;60359;-74
2023/07/09 07:43:59;;;;;;;3.70;2.50;;;;;;;22.21;54.49;99642.85;105764;1258;72607;-74
2023/07/09 07:46:28;;;;;;;4.50;2.50;;;;;;;22.26;53.96;99641.48;105544;1254;70253;-74
2023/07/09 07:48:56;;;;;;;3.10;2.20;;;;;;;22.29;53.92;99644.61;105765;1253;72759;-73
2023/07/09 07:51:23;;;;;;;2.90;2.20;;;;;;;22.33;54.15;99636.30;105722;1258;60426;-70
2023/07/09 07:53:52;;;;;;;2.30;2.10;;;;;;;22.40;53.43;99639.85;105770;1258;60540;-74
2023/07/09 07:56:19;;;;;;;2.70;2.30;;;;;;;22.46;53.13;99637.17;105860;1259;73845;-72
2023/07/09 07:58:47;;;;;;;8.00;2.30;;;;;;;22.49;53.07;99634.04;105770;1253;70088;-71
2023/07/09 08:01:14;;;;;;;5.30;2.20;;;;;;;22.51;52.82;99638.19;105414;1256;70548;-73
2023/07/09 08:03:42;;;;;;;4.70;2.00;;;;;;;22.54;53.19;99641.15;107049;1258;59809;-71
2023/07/09 08:06:11;;;;;;;3.70;2.00;;;;;;;22.58;53.06;99633.96;106984;1254;60437;-73
2023/07/09 08:08:40;;;;;;;3.60;2.00;;;;;;;22.62;52.65;99641.45;106677;1258;73899;-73
2023/07/09 08:11:07;;;;;;;3.00;2.30;;;;;;;22.64;52.85;99632.83;105757;1255;70151;-72
2023/07/09 08:13:36;;;;;;;3.40;2.40;;;;;;;22.68;52.92;99635.70;105547;1256;73604;-73
2023/07/09 08:16:05;;;;;;;2.80;1.70;;;;;;;22.77;52.74;99628.45;105556;1254;60429;-71
2023/07/09 08:18:33;;;;;;;2.80;2.30;;;;;;;22.85;53.03;99630.36;105746;1253;60464;-73
2023/07/09 08:21:00;;;;;;;2.30;2.00;;;;;;;22.93;52.91;99629.52;105529;1253;72432;-72
2023/07/09 08:23:28;;;;;;;3.60;1.90;;;;;;;22.98;52.53;99630.07;105536;1259;69989;-73
2023/07/09 08:26:01;;;;;;;4.80;2.60;;;;;;;23.02;52.59;99626.39;105713;1254;72390;-74
2023/07/09 08:28:30;;;;;;;4.30;2.00;;;;;;;23.09;52.66;99625.70;106005;1254;62318;-73
2023/07/09 08:30:58;;;;;;;2.30;2.00;;;;;;;23.16;52.36;99627.48;105635;1260;60761;-72
2023/07/09 08:33:26;;;;;;;3.20;2.30;;;;;;;23.24;52.17;99629.64;107771;1253;72717;-74
2023/07/09 08:35:53;;;;;;;3.50;2.40;;;;;;;23.33;52.17;99624.44;107403;1257;69010;-71
2023/07/09 08:38:21;;;;;;;2.50;2.30;;;;;;;23.42;51.53;99620.13;106490;1254;72777;-73
2023/07/09 08:40:58;;;;;;;3.00;2.20;;;;;;;23.47;51.03;99621.89;105834;1258;60480;-70
2023/07/09 08:43:44;;;;;;;4.20;2.00;;;;;;;23.51;50.78;99625.20;105394;1258;60429;-70
2023/07/09 08:46:16;;;;;;;4.00;2.00;;;;;;;23.55;50.77;99620.58;105484;1257;72591;-71
2023/07/09 08:48:46;;;;;;;2.40;2.10;;;;;;;23.59;50.83;99621.14;105525;1258;69409;-73
2023/07/09 08:51:33;;;;;;;2.20;2.00;;;;;;;23.66;50.73;99619.70;105811;1257;72767;-71
2023/07/09 08:54:00;;;;;;;2.60;1.90;;;;;;;23.77;50.12;99620.42;105278;1256;60489;-69
2023/07/09 08:56:30;;;;;;;3.50;2.00;;;;;;;23.84;49.79;99622.59;105899;1253;60514;-69
2023/07/09 08:59:00;;;;;;;2.80;2.00;;;;;;;23.90;49.95;99624.92;105435;1259;73868;-71
2023/07/09 09:01:36;;;;;;;4.00;2.40;;;;;;;23.99;49.77;99624.02;105476;1257;71753;-70
2023/07/09 09:04:14;;;;;;;2.50;2.10;;;;;;;24.10;49.93;99616.94;107871;1253;71978;-70
2023/07/09 09:06:42;;;;;;;2.30;2.00;;;;;;;24.24;50.01;99623.55;106562;1254;60042;-71
2023/07/09 09:09:40;;;;;;;3.10;2.70;;;;;;;24.40;50.36;99613.06;105964;1260;60453;-70
2023/07/09 09:12:20;;;;;;;5.40;2.50;;;;;;;24.61;50.21;99616.08;105515;1253;72122;-70
2023/07/09 09:14:53;;;;;;;4.00;2.10;;;;;;;24.81;50.25;99614.48;105683;1258;70583;-72
2023/07/09 09:17:21;;;;;;;4.60;2.70;;;;;;;24.98;49.59;99615.75;105376;1256;72697;-68
2023/07/09 09:20:03;;;;;;;5.00;2.90;;;;;;;25.16;50.19;99613.10;105263;1256;60493;-70
2023/07/09 09:22:57;;;;;;;2.60;2.20;;;;;;;25.41;49.65;99611.33;105384;1260;60928;-70
2023/07/09 09:25:28;;;;;;;2.70;2.20;;;;;;;25.75;49.16;99612.08;105369;1258;73875;-73
2023/07/09 09:27:56;;;;;;;2.60;2.20;;;;;;;26.13;48.95;99615.67;105825;1253;72385;-70
2023/07/09 09:30:24;;;;;;;3.30;2.30;;;;;;;26.66;48.54;99606.41;105305;1255;71498;-69
2023/07/09 09:33:06;;;;;;;4.10;2.50;;;;;;;27.23;46.78;99600.55;106221;1253;60581;-71
2023/07/09 09:35:39;;;;;;;3.30;2.20;;;;;;;27.84;45.72;99604.23;108195;1254;60546;-74
2023/07/09 09:38:12;;;;;;;2.90;2.30;;;;;;;28.21;45.65;99604.67;106465;1253;72583;-72
2023/07/09 09:40:39;;;;;;;2.80;2.50;;;;;;;28.57;45.40;99607.86;105953;1253;69313;-70
2023/07/09 09:43:15;;;;;;;3.80;2.40;;;;;;;28.99;45.11;99597.95;105474;1256;72577;-70
2023/07/09 09:45:44;;;;;;;2.50;2.30;;;;;;;29.52;43.45;99598.37;105594;1256;60535;-72
2023/07/09 09:48:17;;;;;;;2.60;2.40;;;;;;;29.96;42.19;99599.86;105866;1253;60818;-71
2023/07/09 09:50:47;;;;;;;4.40;2.50;;;;;;;30.32;41.69;99595.16;105593;1258;73815;-74
2023/07/09 09:53:19;;;;;;;2.20;1.90;;;;;;;30.73;41.12;99598.49;105446;1259;69012;-69
2023/07/09 09:55:46;;;;;;;3.90;2.30;;;;;;;31.25;40.25;99597.92;105577;1256;72861;-71
2023/07/09 09:58:15;;;;;;;2.40;2.20;;;;;;;31.73;39.64;99592.48;105440;1259;60826;-70
2023/07/09 10:00:51;;;;;;;4.20;2.50;;;;;;;32.16;39.14;99589.46;105586;1255;60345;-72
2023/07/09 10:03:21;;;;;;;7.40;2.60;;;;;;;32.62;38.61;99585.73;107003;1253;73898;-71
2023/07/09 10:05:57;;;;;;;2.80;2.20;;;;;;;33.05;37.55;99583.06;108896;1254;69182;-72
2023/07/09 10:08:39;;;;;;;2.40;2.20;;;;;;;33.41;37.04;99581.48;107082;1259;71557;-71
2023/07/09 10:11:28;;;;;;;2.20;2.10;;;;;;;33.67;36.66;99581.08;106829;1253;60492;-70
2023/07/09 10:14:03;;;;;;;2.40;2.10;;;;;;;33.95;36.30;99581.23;108660;1253;58741;-72
2023/07/09 10:16:45;;;;;;;2.30;2.00;;;;;;;34.28;36.27;99579.73;108895;1252;72571;-71
2023/07/09 10:19:30;;;;;;;2.90;2.20;;;;;;;34.66;35.48;99584.45;109039;1252;60099;-71
2023/07/09 10:22:04;;;;;;;2.60;2.20;;;;;;;34.94;34.92;99579.61;109091;1251;64801;-73
2023/07/09 10:24:53;;;;;;;2.40;2.00;;;;;;;35.13;34.82;99578.31;109105;1253;58027;-71
2023/07/09 10:27:27;;;;;;;3.80;2.20;;;;;;;35.43;34.01;99575.64;108696;1253;60207;-72
2023/07/09 10:30:35;;;;;;;2.70;2.20;;;;;;;35.75;33.34;99571.33;108563;1253;63644;-72
2023/07/09 10:33:10;;;;;;;2.50;2.30;;;;;;;35.97;32.65;99573.46;107142;1252;61448;-72
2023/07/09 10:37:38;;;;;;;5.00;2.20;;;;;;;35.83;32.53;99564.36;105950;1291;600162;-72
2023/07/09 10:40:12;;;;;;;3.60;2.10;;;;;;;35.71;32.59;99576.13;108266;1266;57021;-73
2023/07/09 10:42:50;;;;;;;4.40;2.20;;;;;;;35.70;32.48;99570.64;108321;1266;56731;-72
2023/07/09 10:45:25;;;;;;;2.70;2.40;;;;;;;35.90;32.18;99567.54;108535;1266;73596;-73
2023/07/09 10:47:57;;;;;;;3.30;2.30;;;;;;;36.20;31.92;99563.10;108025;1267;60203;-75
2023/07/09 10:50:40;;;;;;;4.70;2.20;;;;;;;36.24;31.59;99566.88;108619;1252;151915;-72
2023/07/09 10:53:24;;;;;;;3.00;2.50;;;;;;;35.76;32.10;99574.20;108682;1253;57920;-74
2023/07/09 10:56:11;;;;;;;3.90;2.20;;;;;;;35.12;32.64;99579.09;107957;1252;59193;-71
2023/07/09 10:59:05;;;;;;;2.90;2.50;;;;;;;34.47;33.09;99577.52;106361;1253;63420;-70
2023/07/09 11:01:37;;;;;;;3.70;2.80;;;;;;;33.72;34.11;99577.48;106531;1253;69951;-72
2023/07/09 11:04:06;;;;;;;2.50;2.30;;;;;;;33.37;34.57;99583.73;107464;1254;72638;-73
2023/07/09 11:06:35;;;;;;;3.00;2.60;;;;;;;33.43;35.01;99579.52;108520;1252;59625;-73
2023/07/09 11:09:03;;;;;;;2.60;2.30;;;;;;;33.78;34.36;99573.70;106479;1253;60889;-72
2023/07/09 11:11:42;;;;;;;2.80;2.60;;;;;;;34.18;34.25;99571.14;105961;1256;73124;-69
2023/07/09 11:14:21;;;;;;;3.10;2.50;;;;;;;34.77;33.20;99570.36;105848;1253;60114;-70
2023/07/09 11:16:48;;;;;;;3.40;2.40;;;;;;;35.27;32.98;99564.70;105965;1251;64757;-73
2023/07/09 11:19:18;;;;;;;5.60;2.60;;;;;;;35.53;32.38;99562.49;105951;1254;59762;-72
2023/07/09 11:22:08;;;;;;;3.20;2.70;;;;;;;35.54;32.68;99559.55;105884;1255;59641;-75
2023/07/09 11:24:50;;;;;;;3.40;2.60;;;;;;;35.42;32.79;99564.77;106114;1251;62888;-73
2023/07/09 11:27:21;;;;;;;5.20;2.90;;;;;;;35.06;32.88;99568.16;105734;1251;61545;-73
2023/07/09 11:29:56;;;;;;;3.00;2.40;;;;;;;34.52;33.50;99569.83;105957;1251;63843;-71
2023/07/09 11:32:24;;;;;;;4.30;2.60;;;;;;;33.92;34.07;99572.80;106194;1253;60085;-74
2023/07/09 11:34:51;;;;;;;2.90;2.30;;;;;;;33.59;34.53;99576.14;107075;1253;59821;-72
2023/07/09 11:39:46;;;;;;;4.30;2.60;;;;;;;33.58;35.34;99569.30;103133;1293;601244;-73
2023/07/09 11:42:32;;;;;;;3.00;2.60;;;;;;;33.72;35.19;99562.95;105076;1267;60259;-73